sensor_id;sensor_type;location;lat;lon;timestamp;pressure;altitude;pressure_sealevel;temperature;humidity
17505;BME280;8870;50.950;11.762;2023-02-22T00:04:00;98429.44;;;8.54;100.00
17505;BME280;8870;50.950;11.762;2023-02-22T00:09:29;98438.38;;;8.55;100.00
17505;BME280;8870;50.950;11.762;2023-02-22T00:15:00;98424.41;;;8.51;100.00
17505;BME280;8870;50.950;11.762;2023-02-22T00:20:20;98419.03;;;8.51;100.00
17505;BME280;8870;50.950;11.762;2023-02-22T00:25:58;98412.97;;;8.49;100.00
17505;BME280;8870;50.950;11.762;2023-02-22T00:31:16;98426.50;;;8.47;100.00
17505;BME280;8870;50.950;11.762;2023-02-22T00:36:48;98413.09;;;8.47;100.00
17505;BME280;8870;50.950;11.762;2023-02-22T00:42:10;98406.84;;;8.47;100.00
17505;BME280;8870;50.950;11.762;2023-02-22T00:47:41;98406.44;;;8.42;100.00
17505;BME280;8870;50.950;11.762;2023-02-22T00:53:00;98402.75;;;8.43;100.00
17505;BME280;8870;50.950;11.762;2023-02-22T00:58:36;98398.38;;;8.42;100.00
17505;BME280;8870;50.950;11.762;2023-02-22T01:03:54;98397.72;;;8.40;100.00
17505;BME280;8870;50.950;11.762;2023-02-22T01:09:25;98389.66;;;8.40;100.00
17505;BME280;8870;50.950;11.762;2023-02-22T01:14:46;98380.91;;;8.38;100.00
17505;BME280;8870;50.950;11.762;2023-02-22T01:20:20;98381.19;;;8.35;100.00
17505;BME280;8870;50.950;11.762;2023-02-22T01:25:46;98372.88;;;8.28;100.00
17505;BME280;8870;50.950;11.762;2023-02-22T01:31:20;98370.19;;;8.28;100.00
17505;BME280;8870;50.950;11.762;2023-02-22T01:36:39;98365.81;;;8.27;100.00
17505;BME280;8870;50.950;11.762;2023-02-22T01:42:11;98358.91;;;8.24;100.00
17505;BME280;8870;50.950;11.762;2023-02-22T01:47:32;98364.44;;;8.23;100.00
17505;BME280;8870;50.950;11.762;2023-02-22T01:53:04;98358.22;;;8.22;100.00
17505;BME280;8870;50.950;11.762;2023-02-22T01:58:25;98356.41;;;8.23;100.00
17505;BME280;8870;50.950;11.762;2023-02-22T02:04:05;98353.84;;;8.21;100.00
17505;BME280;8870;50.950;11.762;2023-02-22T02:09:29;98352.16;;;8.20;100.00
17505;BME280;8870;50.950;11.762;2023-02-22T02:15:19;98351.31;;;8.20;100.00
17505;BME280;8870;50.950;11.762;2023-02-22T02:20:44;98338.72;;;8.20;100.00
17505;BME280;8870;50.950;11.762;2023-02-22T02:26:35;98336.03;;;8.20;100.00
17505;BME280;8870;50.950;11.762;2023-02-22T02:32:30;98327.28;;;8.18;100.00
17505;BME280;8870;50.950;11.762;2023-02-22T02:37:55;98329.69;;;8.21;100.00
17505;BME280;8870;50.950;11.762;2023-02-22T02:43:31;98326.16;;;8.21;100.00
17505;BME280;8870;50.950;11.762;2023-02-22T02:48:56;98319.94;;;8.20;100.00
17505;BME280;8870;50.950;11.762;2023-02-22T02:54:30;98318.41;;;8.17;100.00
17505;BME280;8870;50.950;11.762;2023-02-22T02:59:48;98320.56;;;8.14;100.00
17505;BME280;8870;50.950;11.762;2023-02-22T03:05:33;98326.91;;;8.13;100.00
17505;BME280;8870;50.950;11.762;2023-02-22T03:11:04;98327.91;;;8.12;100.00
17505;BME280;8870;50.950;11.762;2023-02-22T03:16:44;98312.94;;;8.09;100.00
17505;BME280;8870;50.950;11.762;2023-02-22T03:22:12;98323.69;;;8.09;100.00
17505;BME280;8870;50.950;11.762;2023-02-22T03:27:48;98313.94;;;8.08;100.00
17505;BME280;8870;50.950;11.762;2023-02-22T03:33:26;98314.94;;;8.07;100.00
17505;BME280;8870;50.950;11.762;2023-02-22T03:38:52;98317.44;;;8.09;100.00
17505;BME280;8870;50.950;11.762;2023-02-22T03:44:28;98316.47;;;8.10;100.00
17505;BME280;8870;50.950;11.762;2023-02-22T03:49:53;98301.34;;;8.09;100.00
17505;BME280;8870;50.950;11.762;2023-02-22T03:55:31;98306.72;;;8.09;100.00
17505;BME280;8870;50.950;11.762;2023-02-22T04:00:49;98308.41;;;8.10;100.00
17505;BME280;8870;50.950;11.762;2023-02-22T04:06:20;98302.50;;;8.06;100.00
17505;BME280;8870;50.950;11.762;2023-02-22T04:11:41;98304.03;;;8.09;100.00
17505;BME280;8870;50.950;11.762;2023-02-22T04:17:22;98307.88;;;8.06;100.00
17505;BME280;8870;50.950;11.762;2023-02-22T04:22:42;98299.97;;;8.05;100.00
17505;BME280;8870;50.950;11.762;2023-02-22T04:28:16;98294.91;;;8.01;100.00
17505;BME280;8870;50.950;11.762;2023-02-22T04:33:49;98300.28;;;8.01;100.00
17505;BME280;8870;50.950;11.762;2023-02-22T04:39:21;98288.53;;;8.02;100.00
17505;BME280;8870;50.950;11.762;2023-02-22T04:44:42;98283.19;;;8.02;100.00
17505;BME280;8870;50.950;11.762;2023-02-22T04:50:14;98278.81;;;8.01;100.00
17505;BME280;8870;50.950;11.762;2023-02-22T04:55:32;98271.59;;;8.02;100.00
17505;BME280;8870;50.950;11.762;2023-02-22T05:01:06;98266.38;;;8.00;100.00
17505;BME280;8870;50.950;11.762;2023-02-22T05:06:24;98267.22;;;8.01;100.00
17505;BME280;8870;50.950;11.762;2023-02-22T05:11:55;98265.38;;;8.01;100.00
17505;BME280;8870;50.950;11.762;2023-02-22T05:17:16;98261.00;;;8.00;100.00
17505;BME280;8870;50.950;11.762;2023-02-22T05:22:47;98268.38;;;7.98;100.00
17505;BME280;8870;50.950;11.762;2023-02-22T05:28:14;98264.00;;;7.97;100.00
17505;BME280;8870;50.950;11.762;2023-02-22T05:33:48;98259.47;;;7.98;100.00
17505;BME280;8870;50.950;11.762;2023-02-22T05:39:06;98257.63;;;7.98;100.00
17505;BME280;8870;50.950;11.762;2023-02-22T05:44:37;98261.19;;;7.99;100.00
17505;BME280;8870;50.950;11.762;2023-02-22T05:49:58;98258.50;;;7.99;100.00
17505;BME280;8870;50.950;11.762;2023-02-22T05:55:30;98257.63;;;7.98;100.00
17505;BME280;8870;50.950;11.762;2023-02-22T06:00:48;98253.13;;;7.99;100.00
17505;BME280;8870;50.950;11.762;2023-02-22T06:06:23;98260.16;;;8.00;100.00
17505;BME280;8870;50.950;11.762;2023-02-22T06:11:41;98259.31;;;7.99;100.00
17505;BME280;8870;50.950;11.762;2023-02-22T06:17:13;98263.84;;;7.99;100.00
17505;BME280;8870;50.950;11.762;2023-02-22T06:22:34;98257.63;;;7.98;100.00
17505;BME280;8870;50.950;11.762;2023-02-22T06:28:06;98261.19;;;7.99;100.00
17505;BME280;8870;50.950;11.762;2023-02-22T06:33:37;98263.69;;;8.00;100.00
17505;BME280;8870;50.950;11.762;2023-02-22T06:38:58;98270.75;;;8.01;100.00
17505;BME280;8870;50.950;11.762;2023-02-22T06:44:31;98265.09;;;8.05;100.00
17505;BME280;8870;50.950;11.762;2023-02-22T06:49:52;98269.16;;;8.09;100.00
17505;BME280;8870;50.950;11.762;2023-02-22T06:55:28;98271.53;;;8.12;100.00
17505;BME280;8870;50.950;11.762;2023-02-22T07:00:46;98272.09;;;8.15;100.00
17505;BME280;8870;50.950;11.762;2023-02-22T07:06:17;98276.19;;;8.20;100.00
17505;BME280;8870;50.950;11.762;2023-02-22T07:11:40;98278.41;;;8.24;100.00
17505;BME280;8870;50.950;11.762;2023-02-22T07:17:11;98284.03;;;8.31;100.00
17505;BME280;8870;50.950;11.762;2023-02-22T07:22:29;98286.25;;;8.36;100.00
17505;BME280;8870;50.950;11.762;2023-02-22T07:28:03;98292.03;;;8.41;100.00
17505;BME280;8870;50.950;11.762;2023-02-22T07:33:21;98285.63;;;8.42;100.00
17505;BME280;8870;50.950;11.762;2023-02-22T07:38:52;98276.28;;;8.46;100.00
17505;BME280;8870;50.950;11.762;2023-02-22T07:44:13;98276.03;;;8.49;100.00
17505;BME280;8870;50.950;11.762;2023-02-22T07:49:45;98275.88;;;8.51;100.00
17505;BME280;8870;50.950;11.762;2023-02-22T07:55:05;98273.72;;;8.54;100.00
17505;BME280;8870;50.950;11.762;2023-02-22T08:00:40;98278.78;;;8.57;100.00
17505;BME280;8870;50.950;11.762;2023-02-22T08:05:58;98276.34;;;8.64;100.00
17505;BME280;8870;50.950;11.762;2023-02-22T08:11:29;98268.91;;;8.76;100.00
17505;BME280;8870;50.950;11.762;2023-02-22T08:16:50;98262.97;;;8.90;100.00
17505;BME280;8870;50.950;11.762;2023-02-22T08:22:22;98267.63;;;9.06;100.00
17505;BME280;8870;50.950;11.762;2023-02-22T08:27:42;98259.19;;;9.19;100.00
17505;BME280;8870;50.950;11.762;2023-02-22T08:33:22;98250.22;;;9.37;100.00
17505;BME280;8870;50.950;11.762;2023-02-22T08:38:40;98253.03;;;9.53;100.00
17505;BME280;8870;50.950;11.762;2023-02-22T08:44:11;98250.75;;;9.67;100.00
17505;BME280;8870;50.950;11.762;2023-02-22T08:49:32;98249.47;;;9.79;100.00
17505;BME280;8870;50.950;11.762;2023-02-22T08:55:04;98248.72;;;9.95;100.00
17505;BME280;8870;50.950;11.762;2023-02-22T09:00:23;98243.91;;;10.15;100.00
17505;BME280;8870;50.950;11.762;2023-02-22T09:05:58;98246.63;;;10.32;100.00
17505;BME280;8870;50.950;11.762;2023-02-22T09:11:16;98249.06;;;10.43;100.00
17505;BME280;8870;50.950;11.762;2023-02-22T09:16:47;98237.47;;;10.51;100.00
17505;BME280;8870;50.950;11.762;2023-02-22T09:22:08;98239.16;;;10.60;100.00
17505;BME280;8870;50.950;11.762;2023-02-22T09:27:39;98230.44;;;10.75;100.00
17505;BME280;8870;50.950;11.762;2023-02-22T09:33:12;98230.44;;;10.91;100.00
17505;BME280;8870;50.950;11.762;2023-02-22T09:38:33;98225.72;;;11.02;100.00
17505;BME280;8870;50.950;11.762;2023-02-22T09:44:13;98217.28;;;11.13;100.00
17505;BME280;8870;50.950;11.762;2023-02-22T09:49:39;98217.47;;;11.20;100.00
17505;BME280;8870;50.950;11.762;2023-02-22T09:55:27;98217.13;;;11.23;100.00
17505;BME280;8870;50.950;11.762;2023-02-22T10:00:47;98204.97;;;11.27;100.00
17505;BME280;8870;50.950;11.762;2023-02-22T10:06:23;98208.81;;;11.41;100.00
17505;BME280;8870;50.950;11.762;2023-02-22T10:11:49;98196.78;;;11.60;100.00
17505;BME280;8870;50.950;11.762;2023-02-22T10:17:29;98190.66;;;11.75;100.00
17505;BME280;8870;50.950;11.762;2023-02-22T10:22:59;98188.25;;;11.88;100.00
17505;BME280;8870;50.950;11.762;2023-02-22T10:28:42;98179.16;;;11.89;100.00
17505;BME280;8870;50.950;11.762;2023-02-22T10:34:02;98183.31;;;12.00;100.00
17505;BME280;8870;50.950;11.762;2023-02-22T10:39:34;98178.19;;;12.13;100.00
17505;BME280;8870;50.950;11.762;2023-02-22T10:44:56;98173.25;;;12.25;100.00
17505;BME280;8870;50.950;11.762;2023-02-22T10:50:29;98154.63;;;12.30;100.00
17505;BME280;8870;50.950;11.762;2023-02-22T10:56:12;98150.09;;;12.31;100.00
17505;BME280;8870;50.950;11.762;2023-02-22T11:01:48;98151.16;;;12.45;100.00
17505;BME280;8870;50.950;11.762;2023-02-22T11:07:12;98143.09;;;12.60;100.00
17505;BME280;8870;50.950;11.762;2023-02-22T11:12:48;98129.91;;;12.65;100.00
17505;BME280;8870;50.950;11.762;2023-02-22T11:18:23;98120.13;;;12.79;100.00
17505;BME280;8870;50.950;11.762;2023-02-22T11:24:01;98116.53;;;12.87;100.00
17505;BME280;8870;50.950;11.762;2023-02-22T11:29:24;98108.22;;;12.88;100.00
17505;BME280;8870;50.950;11.762;2023-02-22T11:35:17;98112.91;;;12.94;100.00
17505;BME280;8870;50.950;11.762;2023-02-22T11:40:36;98097.25;;;13.05;100.00
17505;BME280;8870;50.950;11.762;2023-02-22T11:46:11;98087.81;;;13.01;100.00
17505;BME280;8870;50.950;11.762;2023-02-22T11:51:55;98080.66;;;13.08;100.00
17505;BME280;8870;50.950;11.762;2023-02-22T11:57:39;98080.47;;;13.09;100.00
17505;BME280;8870;50.950;11.762;2023-02-22T12:03:39;98070.94;;;13.29;100.00
17505;BME280;8870;50.950;11.762;2023-02-22T12:09:26;98067.88;;;13.47;100.00
17505;BME280;8870;50.950;11.762;2023-02-22T12:14:58;98067.03;;;13.61;100.00
17505;BME280;8870;50.950;11.762;2023-02-22T12:20:37;98059.75;;;13.62;100.00
17505;BME280;8870;50.950;11.762;2023-02-22T12:26:03;98050.31;;;13.73;100.00
17505;BME280;8870;50.950;11.762;2023-02-22T12:31:42;98051.66;;;13.83;100.00
17505;BME280;8870;50.950;11.762;2023-02-22T12:37:06;98057.78;;;13.92;100.00
17505;BME280;8870;50.950;11.762;2023-02-22T12:42:51;98047.53;;;13.87;100.00
17505;BME280;8870;50.950;11.762;2023-02-22T12:48:30;98045.94;;;13.93;100.00
17505;BME280;8870;50.950;11.762;2023-02-22T12:54:12;98044.66;;;14.11;100.00
17505;BME280;8870;50.950;11.762;2023-02-22T12:59:36;98041.69;;;14.27;100.00
17505;BME280;8870;50.950;11.762;2023-02-22T13:05:13;98041.09;;;14.32;100.00
17505;BME280;8870;50.950;11.762;2023-02-22T13:10:40;98032.34;;;14.58;100.00
17505;BME280;8870;50.950;11.762;2023-02-22T13:16:24;98032.88;;;14.69;100.00
17505;BME280;8870;50.950;11.762;2023-02-22T13:21:50;98025.28;;;14.86;100.00
17505;BME280;8870;50.950;11.762;2023-02-22T13:27:27;98020.13;;;14.98;100.00
17505;BME280;8870;50.950;11.762;2023-02-22T13:33:20;98019.94;;;14.99;100.00
17505;BME280;8870;50.950;11.762;2023-02-22T13:39:07;98014.75;;;15.04;100.00
17505;BME280;8870;50.950;11.762;2023-02-22T13:51:05;98014.22;;;15.22;100.00
17505;BME280;8870;50.950;11.762;2023-02-22T13:56:41;98013.59;;;15.27;100.00
17505;BME280;8870;50.950;11.762;2023-02-22T14:02:00;98007.78;;;15.30;100.00
17505;BME280;8870;50.950;11.762;2023-02-22T14:07:57;97996.53;;;15.33;100.00
17505;BME280;8870;50.950;11.762;2023-02-22T14:13:16;98001.13;;;15.39;100.00
17505;BME280;8870;50.950;11.762;2023-02-22T14:18:49;97996.72;;;15.38;100.00
17505;BME280;8870;50.950;11.762;2023-02-22T14:24:27;97988.41;;;15.40;100.00
17505;BME280;8870;50.950;11.762;2023-02-22T14:29:59;97988.16;;;15.35;100.00
17505;BME280;8870;50.950;11.762;2023-02-22T14:35:19;97977.47;;;15.20;100.00
17505;BME280;8870;50.950;11.762;2023-02-22T14:41:06;97981.38;;;15.04;100.00
17505;BME280;8870;50.950;11.762;2023-02-22T14:46:27;97984.66;;;14.92;100.00
17505;BME280;8870;50.950;11.762;2023-02-22T14:52:10;97973.75;;;14.86;100.00
17505;BME280;8870;50.950;11.762;2023-02-22T14:57:44;97972.91;;;14.85;100.00
17505;BME280;8870;50.950;11.762;2023-02-22T15:03:25;97964.09;;;14.76;100.00
17505;BME280;8870;50.950;11.762;2023-02-22T15:08:48;97968.38;;;14.64;100.00
17505;BME280;8870;50.950;11.762;2023-02-22T15:14:24;97970.59;;;14.54;100.00
17505;BME280;8870;50.950;11.762;2023-02-22T15:19:43;97960.94;;;14.44;100.00
17505;BME280;8870;50.950;11.762;2023-02-22T15:25:22;97968.78;;;14.32;100.00
17505;BME280;8870;50.950;11.762;2023-02-22T15:30:44;97964.72;;;14.22;100.00
17505;BME280;8870;50.950;11.762;2023-02-22T15:36:24;97957.94;;;14.04;100.00
17505;BME280;8870;50.950;11.762;2023-02-22T15:41:43;97959.28;;;13.93;100.00
17505;BME280;8870;50.950;11.762;2023-02-22T15:47:19;97951.59;;;13.75;100.00
17505;BME280;8870;50.950;11.762;2023-02-22T15:52:47;97960.25;;;13.64;100.00
17505;BME280;8870;50.950;11.762;2023-02-22T15:58:21;97960.09;;;13.50;100.00
17505;BME280;8870;50.950;11.762;2023-02-22T16:03:48;97958.88;;;13.38;100.00
17505;BME280;8870;50.950;11.762;2023-02-22T16:09:22;97959.31;;;13.20;100.00
17505;BME280;8870;50.950;11.762;2023-02-22T16:14:44;97960.72;;;13.01;100.00
17505;BME280;8870;50.950;11.762;2023-02-22T16:20:32;97959.53;;;12.73;100.00
17505;BME280;8870;50.950;11.762;2023-02-22T16:26:05;97965.31;;;12.55;100.00
17505;BME280;8870;50.950;11.762;2023-02-22T16:31:38;97969.66;;;12.26;100.00
17505;BME280;8870;50.950;11.762;2023-02-22T16:36:59;97961.72;;;11.86;100.00
17505;BME280;8870;50.950;11.762;2023-02-22T16:42:31;97963.06;;;11.59;100.00
17505;BME280;8870;50.950;11.762;2023-02-22T16:47:49;97980.94;;;11.37;100.00
17505;BME280;8870;50.950;11.762;2023-02-22T16:53:24;97976.81;;;11.18;100.00
17505;BME280;8870;50.950;11.762;2023-02-22T16:58:44;97983.47;;;10.99;100.00
17505;BME280;8870;50.950;11.762;2023-02-22T17:04:18;97979.16;;;10.81;100.00
17505;BME280;8870;50.950;11.762;2023-02-22T17:09:40;97986.47;;;10.64;100.00
17505;BME280;8870;50.950;11.762;2023-02-22T17:15:20;97979.75;;;10.52;100.00
17505;BME280;8870;50.950;11.762;2023-02-22T17:20:39;97974.38;;;10.43;100.00
17505;BME280;8870;50.950;11.762;2023-02-22T17:26:13;97979.41;;;10.30;100.00
17505;BME280;8870;50.950;11.762;2023-02-22T17:31:32;97982.44;;;10.18;100.00
17505;BME280;8870;50.950;11.762;2023-02-22T17:37:04;97989.19;;;10.06;100.00
17505;BME280;8870;50.950;11.762;2023-02-22T17:42:24;97988.19;;;9.99;100.00
17505;BME280;8870;50.950;11.762;2023-02-22T17:47:56;97986.00;;;9.94;100.00
17505;BME280;8870;50.950;11.762;2023-02-22T17:53:15;97989.19;;;9.90;100.00
17505;BME280;8870;50.950;11.762;2023-02-22T17:58:51;97977.94;;;9.86;100.00
17505;BME280;8870;50.950;11.762;2023-02-22T18:04:10;97976.75;;;9.80;100.00
17505;BME280;8870;50.950;11.762;2023-02-22T18:09:41;97988.84;;;9.76;100.00
17505;BME280;8870;50.950;11.762;2023-02-22T18:15:01;97982.47;;;9.69;100.00
17505;BME280;8870;50.950;11.762;2023-02-22T18:20:33;97984.63;;;9.65;100.00
17505;BME280;8870;50.950;11.762;2023-02-22T18:26:05;97984.28;;;9.60;100.00
17505;BME280;8870;50.950;11.762;2023-02-22T18:31:38;97978.72;;;9.53;100.00
17505;BME280;8870;50.950;11.762;2023-02-22T18:36:59;97978.56;;;9.47;100.00
17505;BME280;8870;50.950;11.762;2023-02-22T18:42:30;97973.00;;;9.40;100.00
17505;BME280;8870;50.950;11.762;2023-02-22T18:47:50;97983.56;;;9.33;100.00
17505;BME280;8870;50.950;11.762;2023-02-22T18:53:22;97976.81;;;9.29;100.00
17505;BME280;8870;50.950;11.762;2023-02-22T18:58:40;97976.31;;;9.25;100.00
17505;BME280;8870;50.950;11.762;2023-02-22T19:04:14;97966.72;;;9.23;100.00
17505;BME280;8870;50.950;11.762;2023-02-22T19:09:33;97969.59;;;9.21;100.00
17505;BME280;8870;50.950;11.762;2023-02-22T19:15:04;97969.59;;;9.21;100.00
17505;BME280;8870;50.950;11.762;2023-02-22T19:20:25;97963.38;;;9.21;100.00
17505;BME280;8870;50.950;11.762;2023-02-22T19:25:57;97965.38;;;9.19;100.00
17505;BME280;8870;50.950;11.762;2023-02-22T19:31:31;97961.69;;;9.20;100.00
17505;BME280;8870;50.950;11.762;2023-02-22T19:36:52;97955.47;;;9.19;100.00
17505;BME280;8870;50.950;11.762;2023-02-22T19:42:26;97955.47;;;9.19;100.00
17505;BME280;8870;50.950;11.762;2023-02-22T19:47:44;97950.44;;;9.16;100.00
17505;BME280;8870;50.950;11.762;2023-02-22T19:53:18;97955.78;;;9.16;100.00
17505;BME280;8870;50.950;11.762;2023-02-22T19:58:38;97959.34;;;9.17;100.00
17505;BME280;8870;50.950;11.762;2023-02-22T20:04:11;97959.16;;;9.18;100.00
17505;BME280;8870;50.950;11.762;2023-02-22T20:09:34;97962.69;;;9.19;100.00
17505;BME280;8870;50.950;11.762;2023-02-22T20:15:07;97965.22;;;9.20;100.00
17505;BME280;8870;50.950;11.762;2023-02-22T20:20:26;97964.22;;;9.21;100.00
17505;BME280;8870;50.950;11.762;2023-02-22T20:26:00;97973.97;;;9.22;100.00
17505;BME280;8870;50.950;11.762;2023-02-22T20:31:19;97966.41;;;9.26;100.00
17505;BME280;8870;50.950;11.762;2023-02-22T20:36:52;97960.88;;;9.28;100.00
17505;BME280;8870;50.950;11.762;2023-02-22T20:42:12;97964.22;;;9.30;100.00
17505;BME280;8870;50.950;11.762;2023-02-22T20:47:44;97968.59;;;9.31;100.00
17505;BME280;8870;50.950;11.762;2023-02-22T20:53:02;97965.25;;;9.29;100.00
17505;BME280;8870;50.950;11.762;2023-02-22T20:58:35;97966.91;;;9.21;100.00
17505;BME280;8870;50.950;11.762;2023-02-22T21:03:57;97964.53;;;9.10;100.00
17505;BME280;8870;50.950;11.762;2023-02-22T21:09:31;97977.09;;;9.01;100.00
17505;BME280;8870;50.950;11.762;2023-02-22T21:14:51;97971.84;;;9.00;100.00
17505;BME280;8870;50.950;11.762;2023-02-22T21:20:23;97968.53;;;8.98;100.00
17505;BME280;8870;50.950;11.762;2023-02-22T21:25:51;97974.53;;;9.00;100.00
17505;BME280;8870;50.950;11.762;2023-02-22T21:31:26;97973.53;;;9.01;100.00
17505;BME280;8870;50.950;11.762;2023-02-22T21:36:45;97968.53;;;8.98;100.00
17505;BME280;8870;50.950;11.762;2023-02-22T21:42:18;97966.81;;;8.97;100.00
17505;BME280;8870;50.950;11.762;2023-02-22T21:47:38;97969.16;;;9.00;100.00
17505;BME280;8870;50.950;11.762;2023-02-22T21:53:10;97965.16;;;9.04;100.00
17505;BME280;8870;50.950;11.762;2023-02-22T21:58:28;97965.03;;;9.05;100.00
17505;BME280;8870;50.950;11.762;2023-02-22T22:04:03;97970.03;;;9.08;100.00
17505;BME280;8870;50.950;11.762;2023-02-22T22:09:24;97964.34;;;9.12;100.00
17505;BME280;8870;50.950;11.762;2023-02-22T22:14:59;97964.19;;;9.13;100.00
17505;BME280;8870;50.950;11.762;2023-02-22T22:20:20;97964.88;;;9.23;100.00
17505;BME280;8870;50.950;11.762;2023-02-22T22:25:59;97955.81;;;9.24;100.00
17505;BME280;8870;50.950;11.762;2023-02-22T22:31:21;97954.81;;;9.25;100.00
17505;BME280;8870;50.950;11.762;2023-02-22T22:36:56;97946.75;;;9.25;100.00
17505;BME280;8870;50.950;11.762;2023-02-22T22:42:15;97950.78;;;9.30;100.00
17505;BME280;8870;50.950;11.762;2023-02-22T22:47:46;97948.78;;;9.32;100.00
17505;BME280;8870;50.950;11.762;2023-02-22T22:53:08;97956.69;;;9.33;100.00
17505;BME280;8870;50.950;11.762;2023-02-22T22:58:41;97952.97;;;9.34;100.00
17505;BME280;8870;50.950;11.762;2023-02-22T23:04:02;97961.72;;;9.36;100.00
17505;BME280;8870;50.950;11.762;2023-02-22T23:09:39;97960.88;;;9.36;100.00
17505;BME280;8870;50.950;11.762;2023-02-22T23:15:00;97953.84;;;9.35;100.00
17505;BME280;8870;50.950;11.762;2023-02-22T23:20:35;97942.41;;;9.33;100.00
17505;BME280;8870;50.950;11.762;2023-02-22T23:26:04;97959.88;;;9.29;100.00
17505;BME280;8870;50.950;11.762;2023-02-22T23:31:39;97955.16;;;9.31;100.00
17505;BME280;8870;50.950;11.762;2023-02-22T23:36:58;97950.78;;;9.30;100.00
17505;BME280;8870;50.950;11.762;2023-02-22T23:42:33;97948.44;;;9.27;100.00
17505;BME280;8870;50.950;11.762;2023-02-22T23:47:54;97952.13;;;9.25;100.00
17505;BME280;8870;50.950;11.762;2023-02-22T23:53:26;97947.75;;;9.24;100.00
17505;BME280;8870;50.950;11.762;2023-02-22T23:58:48;97950.97;;;9.28;100.00
